Time;durP1;ratioP1;P1;durP2;ratioP2;P2;SDS_P1;SDS_P2;PMS_P1;PMS_P2;Temp;Humidity;BMP_temperature;BMP_pressure;BME280_temperature;BME280_humidity;BME280_pressure;Samples;Min_cycle;Max_cycle;Signal;HPM_P1;HPM_P2
2023/09/09 00:00:39;;;;;;;6.23;5.70;;;24.50;59.10;;;;;;5014079;28;20439;-70
2023/09/09 00:03:04;;;;;;;6.73;6.13;;;24.50;59.20;;;;;;5013493;28;20653;-70
2023/09/09 00:05:32;;;;;;;6.10;5.53;;;24.50;59.10;;;;;;5035321;28;20438;-70
2023/09/09 00:07:58;;;;;;;7.13;6.50;;;24.50;59.10;;;;;;5033593;28;20546;-70
2023/09/09 00:10:23;;;;;;;6.63;6.03;;;24.50;59.10;;;;;;5032072;28;20540;-70
2023/09/09 00:12:49;;;;;;;6.63;6.00;;;24.50;59.10;;;;;;5032891;28;20175;-71
2023/09/09 00:15:14;;;;;;;6.70;6.00;;;24.50;59.10;;;;;;5031020;28;20183;-70
2023/09/09 00:17:40;;;;;;;6.80;6.20;;;24.50;59.10;;;;;;5032460;28;20175;-71
2023/09/09 00:20:09;;;;;;;6.30;5.70;;;24.50;59.10;;;;;;5033409;28;20283;-70
2023/09/09 00:22:34;;;;;;;6.20;5.60;;;24.50;59.10;;;;;;5033537;28;20172;-71
2023/09/09 00:25:00;;;;;;;7.50;6.27;;;24.50;59.10;;;;;;5033725;28;20406;-69
2023/09/09 00:27:25;;;;;;;7.10;6.07;;;24.50;59.00;;;;;;5033937;28;20183;-70
2023/09/09 00:29:51;;;;;;;6.23;5.63;;;24.50;59.00;;;;;;5033605;28;20672;-71
2023/09/09 00:32:16;;;;;;;6.00;5.40;;;24.50;59.00;;;;;;5033888;28;20172;-70
2023/09/09 00:34:42;;;;;;;5.67;5.13;;;24.50;59.00;;;;;;5033923;28;20261;-71
2023/09/09 00:37:08;;;;;;;6.23;5.63;;;24.50;59.00;;;;;;5033614;28;20266;-72
2023/09/09 00:39:34;;;;;;;6.40;5.33;;;24.50;59.00;;;;;;5033699;28;20200;-71
2023/09/09 00:41:59;;;;;;;5.87;5.33;;;24.50;58.90;;;;;;5033190;28;20965;-71
2023/09/09 00:44:25;;;;;;;6.40;5.80;;;24.50;58.90;;;;;;5033881;28;20180;-70
2023/09/09 00:46:51;;;;;;;5.73;5.00;;;24.50;58.90;;;;;;5033812;28;20186;-71
2023/09/09 00:49:17;;;;;;;5.87;5.37;;;24.40;58.80;;;;;;5033134;28;20304;-71
2023/09/09 00:51:44;;;;;;;6.40;5.60;;;24.50;58.90;;;;;;5033322;28;20496;-70
2023/09/09 00:54:11;;;;;;;6.57;5.93;;;24.40;58.80;;;;;;5032933;28;20425;-70
2023/09/09 00:56:36;;;;;;;7.60;5.53;;;24.40;58.80;;;;;;5032815;28;20410;-71
2023/09/09 00:59:03;;;;;;;6.10;5.50;;;24.40;58.80;;;;;;5032769;28;20430;-71
2023/09/09 01:01:31;;;;;;;6.90;5.57;;;24.50;58.80;;;;;;5032797;28;20171;-71
2023/09/09 01:03:57;;;;;;;5.97;5.47;;;24.40;58.70;;;;;;5032715;28;20853;-71
2023/09/09 01:06:23;;;;;;;6.03;5.47;;;24.40;58.70;;;;;;5032935;28;20922;-70
2023/09/09 01:08:49;;;;;;;5.63;5.13;;;24.40;58.70;;;;;;5032436;28;20946;-72
2023/09/09 01:11:15;;;;;;;5.23;4.80;;;24.40;58.70;;;;;;5032572;28;20527;-71
2023/09/09 01:13:40;;;;;;;7.77;5.57;;;24.40;58.60;;;;;;5032466;28;20506;-71
2023/09/09 01:16:07;;;;;;;5.97;5.10;;;24.40;58.60;;;;;;5032540;28;20251;-70
2023/09/09 01:18:34;;;;;;;5.43;4.97;;;24.40;58.60;;;;;;5032383;28;20199;-70
2023/09/09 01:21:11;;;;;;;6.00;5.47;;;24.40;58.60;;;;;;5032380;28;20407;-71
2023/09/09 01:23:38;;;;;;;4.90;4.40;;;24.40;58.60;;;;;;5032381;28;20425;-70
2023/09/09 01:26:04;;;;;;;6.30;5.70;;;24.40;58.50;;;;;;5032281;28;20953;-70
2023/09/09 01:28:29;;;;;;;7.30;5.57;;;24.40;58.50;;;;;;5032490;28;20471;-70
2023/09/09 01:30:55;;;;;;;6.40;5.80;;;24.40;58.50;;;;;;5032141;28;20257;-70
2023/09/09 01:33:20;;;;;;;6.97;6.20;;;24.40;58.40;;;;;;5032123;28;20211;-71
2023/09/09 01:35:46;;;;;;;6.73;5.83;;;24.40;58.40;;;;;;5032134;28;20178;-71
2023/09/09 01:38:13;;;;;;;5.63;5.13;;;24.40;58.40;;;;;;5032053;28;20601;-70
2023/09/09 01:40:38;;;;;;;5.93;5.30;;;24.40;58.40;;;;;;5031911;28;20176;-71
2023/09/09 01:43:04;;;;;;;5.70;5.20;;;24.40;58.30;;;;;;5032260;28;20419;-70
2023/09/09 01:45:30;;;;;;;6.27;5.63;;;24.40;58.30;;;;;;5032220;28;20591;-71
2023/09/09 01:47:56;;;;;;;6.63;5.30;;;24.40;58.30;;;;;;5031863;28;20583;-71
2023/09/09 01:50:22;;;;;;;5.33;4.83;;;24.40;58.20;;;;;;5031739;28;20249;-71
2023/09/09 01:52:47;;;;;;;6.07;5.50;;;24.40;58.10;;;;;;5031754;28;20411;-71
2023/09/09 01:55:13;;;;;;;8.03;6.20;;;24.40;58.10;;;;;;5029859;28;20176;-71
2023/09/09 01:57:39;;;;;;;8.23;6.00;;;24.30;58.00;;;;;;5031973;28;20171;-70
2023/09/09 02:00:08;;;;;;;5.30;4.80;;;24.40;58.10;;;;;;5031638;28;20565;-70
2023/09/09 02:02:34;;;;;;;5.93;5.43;;;24.40;58.00;;;;;;5031860;28;20414;-71
2023/09/09 02:05:00;;;;;;;6.07;5.47;;;24.30;57.90;;;;;;5031487;28;20907;-70
2023/09/09 02:07:25;;;;;;;6.03;5.00;;;24.30;57.80;;;;;;5031836;28;20179;-70
2023/09/09 02:09:51;;;;;;;5.67;5.17;;;24.30;57.70;;;;;;5031600;28;20289;-70
2023/09/09 02:12:16;;;;;;;5.07;4.67;;;24.30;57.70;;;;;;5030597;28;20558;-71
2023/09/09 02:14:42;;;;;;;7.07;4.50;;;24.30;57.60;;;;;;5025663;28;20175;-69
2023/09/09 02:17:08;;;;;;;7.03;5.83;;;24.30;57.60;;;;;;5031209;28;20212;-70
2023/09/09 02:19:33;;;;;;;5.90;5.30;;;24.30;57.50;;;;;;5029443;28;20196;-71
2023/09/09 02:21:59;;;;;;;5.90;5.30;;;24.30;57.40;;;;;;5031035;28;20773;-70
2023/09/09 02:24:25;;;;;;;5.93;5.37;;;24.30;57.40;;;;;;5031495;28;20222;-70
2023/09/09 02:26:50;;;;;;;9.07;5.53;;;24.30;57.30;;;;;;5031221;28;20707;-70
2023/09/09 02:29:16;;;;;;;5.90;5.40;;;24.30;57.20;;;;;;5031093;28;20210;-70
2023/09/09 02:31:42;;;;;;;5.87;5.27;;;24.30;57.20;;;;;;5031169;28;20209;-70
2023/09/09 02:34:08;;;;;;;5.70;5.20;;;24.30;57.20;;;;;;5031117;28;20411;-70
2023/09/09 02:36:33;;;;;;;5.50;4.80;;;24.30;57.20;;;;;;5031111;28;20250;-71
2023/09/09 02:38:59;;;;;;;6.07;5.47;;;24.30;57.20;;;;;;5031223;28;20287;-71
2023/09/09 02:41:24;;;;;;;8.30;5.47;;;24.30;57.20;;;;;;5031030;28;20563;-71
2023/09/09 02:43:50;;;;;;;5.73;5.20;;;24.20;57.00;;;;;;5030994;28;20199;-71
2023/09/09 02:46:15;;;;;;;5.53;5.10;;;24.30;57.00;;;;;;5030998;28;20213;-71
2023/09/09 02:48:41;;;;;;;5.80;5.30;;;24.20;56.90;;;;;;5029426;28;20239;-71
2023/09/09 02:51:06;;;;;;;6.23;5.73;;;24.20;57.10;;;;;;5030769;28;20603;-71
2023/09/09 02:53:32;;;;;;;5.90;5.13;;;24.20;56.90;;;;;;5030901;28;20172;-70
2023/09/09 02:55:58;;;;;;;6.87;5.20;;;24.20;56.90;;;;;;5030850;28;20180;-70
2023/09/09 02:58:23;;;;;;;5.27;4.87;;;24.20;56.90;;;;;;5030796;28;20567;-70
2023/09/09 03:00:49;;;;;;;7.00;4.90;;;24.20;56.90;;;;;;5029572;28;20187;-71
2023/09/09 03:03:20;;;;;;;6.30;5.10;;;24.20;56.80;;;;;;5030720;28;20180;-71
2023/09/09 03:05:45;;;;;;;5.30;4.80;;;24.20;56.70;;;;;;5032274;28;20206;-71
2023/09/09 03:08:11;;;;;;;8.67;5.07;;;24.20;56.80;;;;;;5034803;28;20434;-71
2023/09/09 03:10:37;;;;;;;5.20;4.70;;;24.20;56.80;;;;;;5034734;28;20207;-71
2023/09/09 03:13:03;;;;;;;6.43;5.23;;;24.20;56.70;;;;;;5034856;28;20172;-70
2023/09/09 03:15:29;;;;;;;7.30;5.17;;;24.20;56.60;;;;;;5034765;28;20756;-70
2023/09/09 03:17:55;;;;;;;5.20;4.70;;;24.20;56.60;;;;;;5034913;28;20668;-70
2023/09/09 03:20:21;;;;;;;5.33;4.93;;;24.20;56.60;;;;;;5034656;28;20406;-71
2023/09/09 03:22:46;;;;;;;5.93;5.33;;;24.20;56.50;;;;;;5033284;28;20183;-70
2023/09/09 03:25:12;;;;;;;6.73;5.40;;;24.20;56.60;;;;;;5034496;28;20241;-70
2023/09/09 03:27:37;;;;;;;5.83;5.27;;;24.20;56.50;;;;;;5034530;28;20186;-70
2023/09/09 03:30:03;;;;;;;5.60;5.20;;;24.20;56.50;;;;;;5034441;28;20300;-70
2023/09/09 03:32:29;;;;;;;6.20;5.60;;;24.20;56.50;;;;;;5033585;28;20234;-70
2023/09/09 03:34:55;;;;;;;6.87;6.17;;;24.10;56.40;;;;;;5034180;28;20433;-70
2023/09/09 03:37:21;;;;;;;5.87;5.20;;;24.20;56.40;;;;;;5033955;28;20417;-71
2023/09/09 03:39:47;;;;;;;5.60;5.10;;;24.10;56.30;;;;;;5031699;28;20537;-69
2023/09/09 03:42:13;;;;;;;5.67;5.17;;;24.10;56.20;;;;;;5032890;28;20187;-71
2023/09/09 03:44:39;;;;;;;6.10;5.60;;;24.10;56.20;;;;;;5034210;28;20411;-71
2023/09/09 03:47:04;;;;;;;5.30;4.70;;;24.10;56.10;;;;;;5034220;28;20699;-70
2023/09/09 03:49:30;;;;;;;5.40;4.90;;;24.10;56.10;;;;;;5033789;28;20215;-70
2023/09/09 03:51:56;;;;;;;6.53;5.80;;;24.10;56.00;;;;;;5034104;28;20704;-70
2023/09/09 03:54:21;;;;;;;6.77;5.07;;;24.10;56.60;;;;;;5034033;28;20163;-70
2023/09/09 03:56:47;;;;;;;5.13;4.73;;;24.10;56.00;;;;;;5033995;28;20175;-71
2023/09/09 03:59:13;;;;;;;5.73;5.23;;;24.10;55.90;;;;;;5033873;28;20569;-70
2023/09/09 04:01:39;;;;;;;7.63;5.30;;;24.10;55.90;;;;;;5034165;28;20184;-71
2023/09/09 04:04:05;;;;;;;5.23;4.70;;;24.10;55.90;;;;;;5033850;28;20179;-71
2023/09/09 04:06:31;;;;;;;4.60;4.20;;;24.10;55.80;;;;;;5033812;28;20414;-71
2023/09/09 04:08:57;;;;;;;5.80;4.77;;;24.10;55.80;;;;;;5033628;28;20249;-70
2023/09/09 04:11:23;;;;;;;5.60;5.10;;;24.10;55.80;;;;;;5033745;28;20183;-70
2023/09/09 04:13:49;;;;;;;5.80;5.20;;;24.10;55.70;;;;;;5033676;28;20456;-70
2023/09/09 04:16:15;;;;;;;5.50;5.00;;;24.00;55.60;;;;;;5032299;28;20501;-70
2023/09/09 04:18:40;;;;;;;5.00;4.50;;;24.00;55.60;;;;;;5032729;28;20562;-69
2023/09/09 04:21:06;;;;;;;6.67;6.07;;;24.10;55.70;;;;;;5033541;28;20179;-70
2023/09/09 04:23:32;;;;;;;6.10;5.27;;;24.10;55.70;;;;;;5033530;28;20186;-70
2023/09/09 04:25:57;;;;;;;5.50;5.00;;;24.10;55.70;;;;;;5032143;28;20667;-70
2023/09/09 04:28:26;;;;;;;5.87;5.37;;;24.10;55.60;;;;;;5033379;28;20207;-70
2023/09/09 04:30:52;;;;;;;5.27;4.77;;;24.00;55.70;;;;;;5033269;28;20564;-70
2023/09/09 04:33:17;;;;;;;6.30;5.33;;;24.10;55.60;;;;;;5033304;28;20403;-71
2023/09/09 04:35:43;;;;;;;6.37;5.87;;;24.00;55.50;;;;;;5033323;28;20176;-70
2023/09/09 04:38:09;;;;;;;7.27;5.57;;;24.00;55.50;;;;;;5033171;28;20195;-71
2023/09/09 04:40:37;;;;;;;6.60;5.43;;;24.00;55.40;;;;;;5033314;28;20414;-70
2023/09/09 04:43:03;;;;;;;6.40;5.80;;;24.00;55.40;;;;;;5033175;28;20349;-71
2023/09/09 04:45:28;;;;;;;10.40;5.47;;;24.00;55.40;;;;;;5033171;28;20833;-74
2023/09/09 04:47:54;;;;;;;6.37;5.77;;;24.00;55.30;;;;;;5032972;28;20176;-70
2023/09/09 04:50:20;;;;;;;6.50;5.90;;;24.00;55.40;;;;;;5032816;28;20680;-70
2023/09/09 04:52:47;;;;;;;5.93;5.30;;;24.00;55.40;;;;;;5032974;28;20343;-70
2023/09/09 04:55:13;;;;;;;6.40;5.80;;;24.00;55.30;;;;;;5031543;28;20415;-70
2023/09/09 04:57:40;;;;;;;6.33;5.10;;;24.00;55.30;;;;;;5032875;28;20410;-70
2023/09/09 05:00:07;;;;;;;6.80;6.10;;;24.00;55.40;;;;;;5032783;28;20434;-70
2023/09/09 05:02:37;;;;;;;5.33;4.87;;;24.00;55.30;;;;;;5031398;28;20480;-70
2023/09/09 05:05:04;;;;;;;6.07;5.57;;;24.00;55.30;;;;;;5033230;28;20421;-72
2023/09/09 05:07:35;;;;;;;5.90;5.40;;;24.00;55.30;;;;;;5032714;28;20415;-69
2023/09/09 05:10:04;;;;;;;6.03;5.53;;;23.90;55.20;;;;;;5032464;28;20450;-71
2023/09/09 05:12:30;;;;;;;6.30;5.70;;;24.00;55.30;;;;;;5032567;28;20417;-71
2023/09/09 05:14:55;;;;;;;6.20;5.70;;;23.90;55.10;;;;;;5032541;28;20489;-70
2023/09/09 05:17:21;;;;;;;5.63;5.10;;;23.90;55.20;;;;;;5031214;28;20417;-70
2023/09/09 05:19:46;;;;;;;8.00;5.73;;;23.90;55.10;;;;;;5032348;28;20637;-70
2023/09/09 05:22:12;;;;;;;6.83;5.67;;;23.90;55.20;;;;;;5032387;28;20168;-71
2023/09/09 05:24:37;;;;;;;6.73;6.07;;;23.90;55.10;;;;;;5032652;28;20192;-70
2023/09/09 05:27:03;;;;;;;6.13;5.40;;;23.90;55.10;;;;;;5032590;28;20175;-70
2023/09/09 05:29:29;;;;;;;7.13;5.10;;;23.90;55.30;;;;;;5031027;28;20233;-70
2023/09/09 05:31:54;;;;;;;6.27;5.67;;;23.90;55.30;;;;;;5032207;28;20298;-71
2023/09/09 05:34:20;;;;;;;6.40;5.70;;;23.90;55.30;;;;;;5032213;28;20172;-70
2023/09/09 05:36:46;;;;;;;5.80;5.30;;;23.90;55.30;;;;;;5031131;28;20631;-70
2023/09/09 05:39:12;;;;;;;6.80;5.73;;;23.90;55.20;;;;;;5031949;28;20199;-70
2023/09/09 05:41:38;;;;;;;6.00;5.37;;;23.90;55.30;;;;;;5032011;28;20668;-70
2023/09/09 05:44:03;;;;;;;6.00;5.50;;;23.90;55.30;;;;;;5031631;28;20415;-71
2023/09/09 05:46:29;;;;;;;7.10;6.50;;;23.90;55.30;;;;;;5031087;28;20623;-69
2023/09/09 05:48:55;;;;;;;6.77;6.07;;;23.90;55.30;;;;;;5030766;28;20227;-69
2023/09/09 05:51:20;;;;;;;5.97;5.43;;;23.90;55.40;;;;;;5030020;28;20179;-71
2023/09/09 05:53:47;;;;;;;6.13;5.53;;;23.90;55.60;;;;;;5030036;28;20544;-70
2023/09/09 05:56:13;;;;;;;7.83;6.33;;;23.90;56.00;;;;;;5029954;28;20176;-71
2023/09/09 05:58:39;;;;;;;6.40;5.80;;;23.90;55.80;;;;;;5030196;28;20921;-71
2023/09/09 06:01:05;;;;;;;6.33;5.73;;;23.90;55.70;;;;;;5046945;28;20237;-70
2023/09/09 06:03:32;;;;;;;6.63;5.90;;;23.90;55.70;;;;;;5030986;28;20410;-70
2023/09/09 06:05:58;;;;;;;6.80;6.20;;;23.90;55.60;;;;;;5031812;28;20229;-69
2023/09/09 06:08:24;;;;;;;6.67;6.00;;;23.90;55.60;;;;;;5031724;28;20430;-70
2023/09/09 06:10:49;;;;;;;6.50;5.90;;;23.90;55.70;;;;;;5031445;28;20204;-70
2023/09/09 06:13:15;;;;;;;5.83;5.23;;;23.90;55.70;;;;;;5031445;28;20203;-70
2023/09/09 06:15:40;;;;;;;7.10;6.50;;;23.90;55.80;;;;;;5031723;28;20246;-70
2023/09/09 06:18:06;;;;;;;5.63;5.13;;;23.90;55.90;;;;;;5031009;28;20192;-71
2023/09/09 06:20:31;;;;;;;6.83;6.20;;;23.90;56.00;;;;;;5021398;28;20191;-70
2023/09/09 06:22:57;;;;;;;6.40;5.70;;;23.90;55.90;;;;;;5029509;28;20221;-71
2023/09/09 06:25:23;;;;;;;6.23;5.63;;;23.90;55.80;;;;;;5028361;28;20560;-69
2023/09/09 06:27:49;;;;;;;6.67;6.07;;;23.90;55.80;;;;;;5027293;28;20422;-70
2023/09/09 06:30:15;;;;;;;6.47;5.97;;;23.90;55.90;;;;;;5027835;28;20212;-70
2023/09/09 06:32:40;;;;;;;7.27;5.67;;;23.90;55.90;;;;;;5029305;28;20363;-69
2023/09/09 06:35:07;;;;;;;6.43;5.83;;;24.00;56.00;;;;;;5030709;28;20179;-70
2023/09/09 06:37:32;;;;;;;6.73;6.07;;;23.90;56.00;;;;;;5030570;28;20610;-70
2023/09/09 06:39:58;;;;;;;6.20;5.60;;;24.00;56.00;;;;;;5023151;28;20485;-69
2023/09/09 06:42:23;;;;;;;6.20;5.60;;;23.90;55.90;;;;;;5019767;28;20188;-70
2023/09/09 06:44:49;;;;;;;6.03;5.53;;;24.00;56.00;;;;;;5028211;28;20263;-70
2023/09/09 06:47:14;;;;;;;6.40;5.80;;;24.00;55.90;;;;;;5029681;28;20191;-70
2023/09/09 06:49:41;;;;;;;6.37;5.87;;;23.90;55.90;;;;;;5030583;28;20301;-70
2023/09/09 06:52:07;;;;;;;6.13;5.43;;;24.00;56.10;;;;;;5031093;28;20269;-70
2023/09/09 06:54:33;;;;;;;5.83;5.33;;;24.00;56.20;;;;;;5030878;28;20446;-70
2023/09/09 06:56:59;;;;;;;5.33;4.93;;;23.90;56.20;;;;;;5030887;28;20260;-70
2023/09/09 06:59:25;;;;;;;5.67;5.10;;;24.00;56.40;;;;;;5030811;28;20466;-71
2023/09/09 07:01:51;;;;;;;6.30;4.90;;;24.00;56.40;;;;;;5030799;28;20562;-69
2023/09/09 07:04:16;;;;;;;5.27;4.63;;;24.00;56.30;;;;;;5030849;28;20282;-69
2023/09/09 07:06:42;;;;;;;5.90;5.10;;;24.00;56.40;;;;;;5030815;28;21018;-70
2023/09/09 07:09:09;;;;;;;6.47;5.90;;;24.00;56.40;;;;;;5030629;28;20203;-70
2023/09/09 07:11:35;;;;;;;5.60;5.10;;;24.00;56.40;;;;;;5030800;28;20179;-70
2023/09/09 07:14:00;;;;;;;6.33;5.73;;;24.00;56.40;;;;;;5030759;28;20407;-70
2023/09/09 07:16:28;;;;;;;6.13;5.63;;;24.00;56.50;;;;;;5030743;28;20263;-69
2023/09/09 07:18:53;;;;;;;5.93;5.33;;;24.00;56.50;;;;;;5030688;28;20195;-69
2023/09/09 07:21:19;;;;;;;5.63;5.13;;;24.00;56.60;;;;;;5030650;28;20414;-70
2023/09/09 07:23:44;;;;;;;6.00;5.50;;;24.00;56.60;;;;;;5030671;28;20649;-69
2023/09/09 07:26:10;;;;;;;6.00;5.50;;;24.00;56.60;;;;;;5030929;28;20186;-69
2023/09/09 07:28:35;;;;;;;5.50;5.00;;;24.00;56.60;;;;;;5030508;28;20207;-70
2023/09/09 07:31:02;;;;;;;7.13;6.47;;;24.00;56.70;;;;;;5030530;28;20226;-70
2023/09/09 07:33:28;;;;;;;5.83;5.33;;;24.00;56.60;;;;;;5030776;28;20276;-70
2023/09/09 07:35:54;;;;;;;6.33;5.77;;;24.00;56.70;;;;;;5030485;28;20485;-69
2023/09/09 07:38:19;;;;;;;6.70;5.60;;;24.00;56.70;;;;;;5030347;28;20237;-70
2023/09/09 07:40:45;;;;;;;6.80;5.80;;;24.00;56.80;;;;;;5029011;28;20187;-69
2023/09/09 07:43:11;;;;;;;6.20;5.60;;;24.00;56.80;;;;;;5030453;28;20176;-70
2023/09/09 07:45:36;;;;;;;6.30;5.70;;;24.00;56.80;;;;;;5030394;28;20184;-70
2023/09/09 07:48:02;;;;;;;7.57;5.63;;;24.00;56.80;;;;;;5029946;28;20184;-69
2023/09/09 07:50:28;;;;;;;6.53;5.93;;;24.00;56.80;;;;;;5030234;28;20191;-70
2023/09/09 07:52:53;;;;;;;6.47;5.77;;;24.10;56.90;;;;;;5030526;28;20266;-70
2023/09/09 07:55:19;;;;;;;7.00;6.40;;;24.00;56.80;;;;;;5033993;28;20286;-69
2023/09/09 07:57:44;;;;;;;6.47;5.87;;;24.10;56.90;;;;;;5033816;28;20221;-69
2023/09/09 08:00:10;;;;;;;6.73;6.13;;;24.10;57.00;;;;;;5033672;28;20282;-71
2023/09/09 08:02:36;;;;;;;7.10;6.50;;;24.10;57.00;;;;;;5033878;28;20214;-71
2023/09/09 08:05:03;;;;;;;6.70;6.03;;;24.10;57.00;;;;;;5031570;28;20931;-70
2023/09/09 08:07:28;;;;;;;6.27;5.67;;;24.10;57.00;;;;;;5033707;28;20620;-69
2023/09/09 08:09:54;;;;;;;5.97;5.47;;;24.10;57.10;;;;;;5033556;28;20462;-70
2023/09/09 08:12:20;;;;;;;5.90;5.40;;;24.00;57.10;;;;;;5033984;28;20187;-70
2023/09/09 08:14:47;;;;;;;6.40;5.80;;;24.10;57.20;;;;;;5033335;28;20221;-70
2023/09/09 08:17:13;;;;;;;5.67;4.87;;;24.10;57.20;;;;;;5033527;28;20245;-70
2023/09/09 08:19:38;;;;;;;5.90;5.40;;;24.10;57.10;;;;;;5033476;28;20445;-70
2023/09/09 08:22:04;;;;;;;6.77;5.67;;;24.10;57.10;;;;;;5032080;28;20663;-71
2023/09/09 08:24:29;;;;;;;6.77;6.17;;;24.10;57.20;;;;;;5033696;28;20184;-70
2023/09/09 08:26:55;;;;;;;5.80;5.20;;;24.10;57.20;;;;;;5033385;28;20281;-71
2023/09/09 08:29:20;;;;;;;5.77;5.27;;;24.10;57.20;;;;;;5033180;28;20235;-70
2023/09/09 08:31:49;;;;;;;6.43;5.83;;;24.10;57.20;;;;;;5032310;28;20637;-71
2023/09/09 08:34:15;;;;;;;6.30;5.40;;;24.10;57.20;;;;;;5033196;28;20230;-71
2023/09/09 08:36:40;;;;;;;5.90;5.40;;;24.10;57.20;;;;;;5032934;28;20414;-70
2023/09/09 08:39:06;;;;;;;5.50;5.10;;;24.10;57.30;;;;;;5032752;28;20195;-69
2023/09/09 08:42:00;;;;;;;6.10;5.50;;;24.10;57.40;;;;;;5033173;28;20184;-71
2023/09/09 08:44:59;;;;;;;6.20;5.60;;;24.10;57.50;;;;;;5033280;28;20168;-70
2023/09/09 08:47:26;;;;;;;6.10;5.43;;;24.10;57.50;;;;;;5032970;28;20391;-70
2023/09/09 08:49:54;;;;;;;6.40;5.80;;;24.10;57.60;;;;;;5032613;28;20477;-70
2023/09/09 08:52:24;;;;;;;5.80;5.20;;;24.10;57.60;;;;;;5032770;28;20410;-71
2023/09/09 08:54:52;;;;;;;6.30;5.70;;;24.10;57.60;;;;;;5032821;28;20418;-71
2023/09/09 08:57:17;;;;;;;8.33;6.40;;;24.10;57.70;;;;;;5020861;28;20422;-71
2023/09/09 08:59:46;;;;;;;5.77;5.27;;;24.10;57.60;;;;;;5022192;28;20804;-71
2023/09/09 09:02:12;;;;;;;6.20;5.67;;;24.10;57.70;;;;;;5022952;28;20180;-71
2023/09/09 09:04:38;;;;;;;8.43;6.47;;;24.10;57.60;;;;;;5020919;28;20478;-71
2023/09/09 09:07:04;;;;;;;6.13;5.60;;;24.10;57.70;;;;;;5022826;28;20176;-71
2023/09/09 09:09:30;;;;;;;5.93;5.40;;;24.10;57.60;;;;;;5022442;28;20462;-71
2023/09/09 09:12:00;;;;;;;8.10;6.37;;;24.20;57.80;;;;;;5027081;28;20480;-69
2023/09/09 09:14:25;;;;;;;6.40;5.83;;;24.20;57.80;;;;;;5032493;28;20168;-70
2023/09/09 09:16:52;;;;;;;6.67;6.00;;;24.20;57.80;;;;;;5031122;28;20487;-71
2023/09/09 09:19:26;;;;;;;6.10;5.60;;;24.10;57.70;;;;;;5021202;28;20211;-71
2023/09/09 09:21:52;;;;;;;7.50;5.37;;;24.20;57.80;;;;;;5020462;28;20430;-70
2023/09/09 09:24:22;;;;;;;6.00;5.50;;;24.20;57.80;;;;;;5012441;28;20426;-71
2023/09/09 09:26:48;;;;;;;7.13;6.43;;;24.20;57.80;;;;;;5012517;28;20902;-71
2023/09/09 09:29:13;;;;;;;7.53;6.30;;;24.20;57.80;;;;;;5012275;28;20489;-71
2023/09/09 09:31:39;;;;;;;6.73;6.13;;;24.20;57.80;;;;;;5012374;28;20184;-71
2023/09/09 09:34:04;;;;;;;7.07;6.43;;;24.20;57.80;;;;;;5012333;28;20259;-70
2023/09/09 09:36:30;;;;;;;5.93;5.43;;;24.20;57.80;;;;;;5012301;28;20263;-71
2023/09/09 09:38:56;;;;;;;6.23;5.63;;;24.20;57.80;;;;;;5012147;28;20211;-69
2023/09/09 09:41:22;;;;;;;6.13;5.60;;;24.20;57.80;;;;;;5012221;28;20561;-71
2023/09/09 09:43:49;;;;;;;6.00;5.50;;;24.20;57.80;;;;;;5012154;28;20193;-70
2023/09/09 09:46:19;;;;;;;6.37;5.87;;;24.20;57.80;;;;;;5012004;28;20430;-71
2023/09/09 09:48:45;;;;;;;6.67;5.73;;;24.20;57.90;;;;;;5027615;28;20956;-70
2023/09/09 09:51:11;;;;;;;7.10;6.50;;;24.20;57.80;;;;;;5030911;28;20462;-71
2023/09/09 09:53:49;;;;;;;6.60;6.00;;;24.20;57.90;;;;;;5029296;28;21004;-70
2023/09/09 09:56:15;;;;;;;5.57;5.07;;;24.20;57.90;;;;;;5030291;28;20155;-71
2023/09/09 09:58:44;;;;;;;6.83;6.17;;;24.20;57.90;;;;;;5031029;28;20511;-70
2023/09/09 10:01:10;;;;;;;8.90;6.60;;;24.20;58.00;;;;;;5031619;28;20505;-70
2023/09/09 10:03:57;;;;;;;6.63;6.03;;;24.20;57.90;;;;;;5031551;28;20418;-71
2023/09/09 10:06:27;;;;;;;8.80;6.00;;;24.20;57.90;;;;;;5031810;28;20429;-71
2023/09/09 10:09:19;;;;;;;6.20;5.70;;;24.20;57.90;;;;;;5031613;28;20472;-71
2023/09/09 10:11:59;;;;;;;6.60;5.80;;;24.20;58.00;;;;;;5031522;28;20419;-71
2023/09/09 10:14:27;;;;;;;6.80;6.20;;;24.20;58.10;;;;;;5031087;28;20904;-71
2023/09/09 10:16:55;;;;;;;6.67;6.03;;;24.20;58.10;;;;;;5031139;28;20402;-70
2023/09/09 10:19:23;;;;;;;6.73;6.00;;;24.20;58.10;;;;;;5031082;28;20484;-70
2023/09/09 10:21:51;;;;;;;6.10;5.50;;;24.20;58.10;;;;;;5031228;28;20414;-70
2023/09/09 10:24:18;;;;;;;6.83;6.23;;;24.20;58.10;;;;;;5031392;28;20406;-71
2023/09/09 10:26:46;;;;;;;7.20;6.53;;;24.20;58.10;;;;;;5029840;28;20419;-71
2023/09/09 10:29:15;;;;;;;10.87;6.40;;;24.20;58.10;;;;;;5031000;28;20442;-71
2023/09/09 10:31:42;;;;;;;7.60;6.43;;;24.20;58.10;;;;;;5031269;28;20833;-71
2023/09/09 10:34:09;;;;;;;6.93;6.10;;;24.20;58.10;;;;;;5029626;28;20544;-71
2023/09/09 10:36:37;;;;;;;7.40;6.70;;;24.30;58.10;;;;;;5029471;28;20410;-70
2023/09/09 10:39:02;;;;;;;7.00;6.40;;;24.30;58.10;;;;;;5030876;28;20441;-71
2023/09/09 10:41:30;;;;;;;7.47;6.77;;;24.30;58.20;;;;;;5030951;28;20410;-71
2023/09/09 10:43:56;;;;;;;7.07;6.37;;;24.30;58.20;;;;;;5028516;28;20552;-71
2023/09/09 10:46:37;;;;;;;6.70;6.20;;;24.30;58.20;;;;;;5030877;28;20414;-71
2023/09/09 10:49:03;;;;;;;12.97;6.63;;;24.30;58.20;;;;;;5013052;28;20569;-71
2023/09/09 10:51:42;;;;;;;6.60;6.00;;;24.30;58.20;;;;;;5030892;28;20426;-71
2023/09/09 10:54:11;;;;;;;7.30;6.60;;;24.30;58.20;;;;;;5030761;28;20414;-71
2023/09/09 10:57:02;;;;;;;6.83;6.23;;;24.30;58.20;;;;;;5030986;28;20439;-70
2023/09/09 10:59:30;;;;;;;6.87;6.27;;;24.30;58.20;;;;;;5030226;28;20438;-71
2023/09/09 11:02:21;;;;;;;7.07;6.37;;;24.30;58.20;;;;;;5030111;28;20468;-71
2023/09/09 11:05:10;;;;;;;7.07;6.00;;;24.30;58.20;;;;;;5030850;28;20417;-71
2023/09/09 11:07:45;;;;;;;7.20;6.50;;;24.30;58.20;;;;;;5030798;28;20772;-72
2023/09/09 11:10:18;;;;;;;7.00;6.40;;;24.30;58.20;;;;;;5029213;28;20484;-71
2023/09/09 11:12:52;;;;;;;6.80;6.20;;;24.30;58.30;;;;;;5030629;28;20474;-71
2023/09/09 11:15:18;;;;;;;7.47;6.87;;;24.30;58.30;;;;;;5030598;28;20778;-71
2023/09/09 11:17:44;;;;;;;6.60;6.00;;;24.30;58.30;;;;;;5030553;28;20418;-71
2023/09/09 11:20:11;;;;;;;7.70;6.50;;;24.30;58.30;;;;;;5030466;28;20210;-71
2023/09/09 11:22:41;;;;;;;8.20;7.07;;;24.30;58.30;;;;;;5030445;28;20180;-72
2023/09/09 11:25:07;;;;;;;6.63;6.03;;;24.30;58.30;;;;;;5029274;28;20816;-71
2023/09/09 11:27:33;;;;;;;7.17;6.47;;;24.30;58.30;;;;;;5031503;28;20417;-71
2023/09/09 11:29:59;;;;;;;7.00;6.37;;;24.30;58.30;;;;;;5033454;28;20454;-71
2023/09/09 11:32:27;;;;;;;7.30;6.60;;;24.30;58.30;;;;;;5033786;28;20497;-71
2023/09/09 11:34:56;;;;;;;6.40;5.80;;;24.30;58.30;;;;;;5032892;28;20417;-71
2023/09/09 11:37:26;;;;;;;7.37;6.60;;;24.30;58.30;;;;;;5034260;28;20413;-72
2023/09/09 11:39:53;;;;;;;5.70;5.20;;;24.40;58.30;;;;;;5034270;28;20453;-71
2023/09/09 11:42:19;;;;;;;7.13;6.53;;;24.40;58.30;;;;;;5034247;28;20461;-70
2023/09/09 11:44:46;;;;;;;7.97;6.57;;;24.30;58.30;;;;;;5034207;28;20421;-70
2023/09/09 11:47:14;;;;;;;7.17;6.30;;;24.30;58.30;;;;;;5032784;28;20434;-70
2023/09/09 11:49:43;;;;;;;6.57;5.97;;;24.40;58.30;;;;;;5033741;28;20473;-71
2023/09/09 11:52:09;;;;;;;7.37;6.77;;;24.40;58.40;;;;;;5031805;28;20521;-68
2023/09/09 11:54:36;;;;;;;7.40;6.80;;;24.30;58.30;;;;;;5033360;28;20497;-72
2023/09/09 11:57:08;;;;;;;7.83;7.13;;;24.40;58.30;;;;;;5031451;28;20195;-72
2023/09/09 11:59:44;;;;;;;8.47;6.70;;;24.30;58.20;;;;;;5032464;28;20445;-71
2023/09/09 12:02:20;;;;;;;7.00;6.40;;;24.40;58.20;;;;;;5032784;28;20486;-71
2023/09/09 12:05:14;;;;;;;6.43;5.83;;;24.40;58.20;;;;;;5034234;28;20776;-71
2023/09/09 12:07:42;;;;;;;7.10;5.70;;;24.40;58.20;;;;;;5032506;28;20426;-70
2023/09/09 12:10:14;;;;;;;9.00;6.07;;;24.30;58.20;;;;;;5033274;28;20523;-71
2023/09/09 12:12:47;;;;;;;7.03;6.43;;;24.40;58.20;;;;;;5031697;28;20456;-71
2023/09/09 12:15:14;;;;;;;7.50;6.80;;;24.40;58.30;;;;;;5032420;28;20795;-71
2023/09/09 12:17:39;;;;;;;8.17;7.47;;;24.40;58.30;;;;;;5031144;28;21062;-72
2023/09/09 12:20:09;;;;;;;7.90;7.20;;;24.40;58.20;;;;;;5032418;28;20473;-69
2023/09/09 12:22:40;;;;;;;6.90;6.30;;;24.40;58.20;;;;;;5036834;28;20194;-71
2023/09/09 12:25:26;;;;;;;7.57;6.70;;;24.40;58.20;;;;;;5033590;28;20399;-72
2023/09/09 12:27:52;;;;;;;7.77;6.97;;;24.40;58.20;;;;;;5034655;28;20405;-70
2023/09/09 12:30:39;;;;;;;6.83;6.27;;;24.40;58.30;;;;;;5035866;28;20465;-69
2023/09/09 12:33:09;;;;;;;7.77;6.30;;;24.40;58.20;;;;;;5033534;28;20251;-70
2023/09/09 12:35:36;;;;;;;6.80;6.10;;;24.40;58.20;;;;;;5034153;28;20406;-68
2023/09/09 12:38:02;;;;;;;7.87;7.07;;;24.40;58.20;;;;;;5034047;28;20942;-71
2023/09/09 12:40:29;;;;;;;6.77;6.20;;;24.40;58.20;;;;;;5034332;28;20415;-70
2023/09/09 12:43:08;;;;;;;6.43;5.83;;;24.40;58.20;;;;;;5033631;28;20415;-71
2023/09/09 12:45:33;;;;;;;6.23;5.63;;;24.40;58.20;;;;;;5035100;28;20436;-71